Terminal Aerodrome Forecast
Issued by NWS

Home | Current Version | Previous Version | Text Only | Print | Product List | Glossary On
Versions: 1 2 3 4 5 6 7 8 9 10 11 12 13
467
FTUS45 KTFX 102320
TAFBZN
TAF
KBZN 102320Z 1100/1124 15005KT P6SM SCT070 BKN200
     FM111800 24007KT P6SM SCT040 BKN070=

USA.gov is the U.S. government's official web portal to all federal, state and local government web resources and services.